createdAt,value
2023-04-27T00:01:12.165Z,71.88
2023-04-27T00:04:16.831Z,73.23
2023-04-27T00:07:19.706Z,74.64
2023-04-27T00:10:22.611Z,73.82
2023-04-27T00:13:25.505Z,73.21
2023-04-27T00:16:28.434Z,73.60
2023-04-27T00:19:31.364Z,73.33
2023-04-27T00:22:34.271Z,72.77
2023-04-27T00:25:37.250Z,72.15
2023-04-27T00:28:40.008Z,71.99
2023-04-27T00:31:43.203Z,71.65
2023-04-27T00:34:45.886Z,70.58
2023-04-27T00:37:49.008Z,73.54
2023-04-27T00:40:51.879Z,73.81
2023-04-27T00:43:55.582Z,73.39
2023-04-27T00:46:58.774Z,72.96
2023-04-27T00:50:01.561Z,73.59
2023-04-27T00:53:06.382Z,75.24
2023-04-27T00:56:09.181Z,77.04
2023-04-27T00:59:12.172Z,76.30
2023-04-27T01:02:15.117Z,73.68
2023-04-27T01:05:17.825Z,76.94
2023-04-27T01:08:22.526Z,74.94
2023-04-27T01:11:25.981Z,78.48
2023-04-27T01:14:28.695Z,78.28
2023-04-27T01:17:32.210Z,77.67
2023-04-27T01:20:36.377Z,76.54
2023-04-27T01:23:39.246Z,76.47
2023-04-27T01:26:41.977Z,77.35
2023-04-27T01:29:46.323Z,77.82
2023-04-27T01:32:49.993Z,78.77
2023-04-27T01:35:55.077Z,78.52
2023-04-27T01:38:58.098Z,79.12
2023-04-27T01:42:02.835Z,78.96
2023-04-27T01:45:05.904Z,79.96
2023-04-27T01:48:08.612Z,80.26
2023-04-27T01:51:11.155Z,79.79
2023-04-27T01:54:14.366Z,78.73
2023-04-27T01:57:18.815Z,79.02
2023-04-27T02:00:22.213Z,78.53
2023-04-27T02:03:25.274Z,77.23
2023-04-27T02:06:28.504Z,76.80
2023-04-27T02:09:31.488Z,77.94
2023-04-27T02:12:34.679Z,78.37
2023-04-27T02:15:38.883Z,79.78
2023-04-27T02:18:42.005Z,80.94
2023-04-27T02:21:45.854Z,79.70
2023-04-27T02:24:48.829Z,77.01
2023-04-27T02:27:51.579Z,77.67
2023-04-27T02:30:55.670Z,76.86
2023-04-27T02:33:58.424Z,76.81
2023-04-27T02:37:01.301Z,77.57
2023-04-27T02:40:05.629Z,77.34
2023-04-27T02:43:08.868Z,77.87
2023-04-27T02:46:11.281Z,77.20
2023-04-27T02:49:16.094Z,78.06
2023-04-27T02:52:19.504Z,77.85
2023-04-27T02:55:22.790Z,78.98
2023-04-27T02:58:26.141Z,78.53
2023-04-27T03:01:28.997Z,78.50
2023-04-27T03:04:31.782Z,78.44
2023-04-27T03:07:34.603Z,77.68
2023-04-27T03:10:39.527Z,77.22
2023-04-27T03:13:42.657Z,78.50
2023-04-27T03:16:45.183Z,78.21
2023-04-27T03:19:49.565Z,78.04
2023-04-27T03:22:52.026Z,79.29
2023-04-27T03:25:56.323Z,78.94
2023-04-27T03:28:59.959Z,78.15
2023-04-27T03:32:05.119Z,79.14
2023-04-27T03:35:08.148Z,79.12
2023-04-27T03:38:10.980Z,79.18
2023-04-27T03:41:13.720Z,78.30
2023-04-27T03:44:17.368Z,79.78
2023-04-27T03:47:19.899Z,79.64
2023-04-27T03:50:23.561Z,79.33
2023-04-27T03:53:26.045Z,80.46
2023-04-27T03:56:28.845Z,80.66
2023-04-27T03:59:31.976Z,79.54
2023-04-27T04:02:34.793Z,80.42
2023-04-27T04:05:38.121Z,80.16
2023-04-27T04:08:41.370Z,80.50
2023-04-27T04:11:44.461Z,80.01
2023-04-27T04:14:50.520Z,81.71
2023-04-27T04:17:52.997Z,80.37
2023-04-27T04:20:56.031Z,81.52
2023-04-27T04:23:58.565Z,80.58
2023-04-27T04:27:01.678Z,81.71
2023-04-27T04:30:06.382Z,81.07
2023-04-27T04:33:10.664Z,81.32
2023-04-27T04:36:13.582Z,81.29
2023-04-27T04:39:17.086Z,81.27
2023-04-27T04:42:20.752Z,80.64
2023-04-27T04:45:24.278Z,80.89
2023-04-27T04:48:26.740Z,81.55
2023-04-27T04:51:31.397Z,81.31
2023-04-27T04:54:34.069Z,79.75
2023-04-27T04:57:36.960Z,79.78
2023-04-27T05:00:39.832Z,79.56
2023-04-27T05:03:42.674Z,77.99
2023-04-27T05:06:45.528Z,77.86
2023-04-27T05:09:48.106Z,77.92
2023-04-27T05:12:51.094Z,79.25
2023-04-27T05:15:54.671Z,78.60
2023-04-27T05:18:57.408Z,77.90
2023-04-27T05:22:00.055Z,78.71
2023-04-27T05:25:03.533Z,78.44
2023-04-27T05:28:06.318Z,77.32
2023-04-27T05:31:09.122Z,78.16
2023-04-27T05:34:12.133Z,77.70
2023-04-27T05:37:14.640Z,76.64
2023-04-27T05:40:17.428Z,75.69
2023-04-27T05:43:20.532Z,74.60
2023-04-27T05:46:23.390Z,73.72
2023-04-27T05:49:25.969Z,74.19
2023-04-27T05:52:31.213Z,73.86
2023-04-27T05:55:33.756Z,71.75
2023-04-27T05:58:36.466Z,70.80
2023-04-27T06:01:39.537Z,70.98
2023-04-27T06:04:42.614Z,68.26
2023-04-27T06:07:45.026Z,66.59
2023-04-27T06:10:53.099Z,67.03
2023-04-27T06:13:55.978Z,67.26
2023-04-27T06:16:58.730Z,67.35
2023-04-27T06:20:01.253Z,66.85
2023-04-27T06:23:04.006Z,66.99
2023-04-27T06:26:06.633Z,67.63
2023-04-27T06:29:09.373Z,66.41
2023-04-27T06:32:11.987Z,65.63
2023-04-27T06:35:14.776Z,63.44
2023-04-27T06:38:17.970Z,63.68
2023-04-27T06:41:20.970Z,62.98
2023-04-27T06:44:23.423Z,63.85
2023-04-27T06:47:25.993Z,62.49
2023-04-27T06:50:29.433Z,61.47
2023-04-27T06:53:32.115Z,58.67
2023-04-27T06:56:34.779Z,56.73
2023-04-27T06:59:37.405Z,60.12
2023-04-27T07:02:40.241Z,59.11
2023-04-27T07:05:43.076Z,59.79
2023-04-27T07:08:45.595Z,57.62
2023-04-27T07:11:48.204Z,58.04
2023-04-27T07:14:51.031Z,55.30
2023-04-27T07:17:56.954Z,55.50
2023-04-27T07:20:59.673Z,54.62
2023-04-27T07:24:03.241Z,55.46
2023-04-27T07:27:05.911Z,52.83
2023-04-27T07:30:10.060Z,51.38
2023-04-27T07:33:13.400Z,47.36
2023-04-27T07:36:16.233Z,48.21
2023-04-27T07:39:19.458Z,48.75
2023-04-27T07:42:25.242Z,47.46
2023-04-27T07:45:34.275Z,49.02
2023-04-27T07:48:37.385Z,48.98
2023-04-27T07:51:40.077Z,51.21
2023-04-27T07:54:42.579Z,48.99
2023-04-27T07:57:45.088Z,51.41
2023-04-27T08:00:47.700Z,47.05
2023-04-27T08:03:50.627Z,47.75
2023-04-27T08:06:54.054Z,44.94
2023-04-27T08:09:57.520Z,48.31
2023-04-27T08:13:00.134Z,43.77
2023-04-27T08:16:02.777Z,44.32
